createdAt,value
2019-05-09T00:01:47.838Z,16.00
2019-05-09T00:04:14.707Z,14.10
2019-05-09T00:06:43.086Z,16.10
2019-05-09T00:09:10.223Z,19.43
2019-05-09T00:11:37.154Z,14.47
2019-05-09T00:14:04.611Z,14.13
2019-05-09T00:16:33.495Z,16.13
2019-05-09T00:19:00.543Z,15.50
2019-05-09T00:21:33.247Z,17.53
2019-05-09T00:24:00.362Z,14.63
2019-05-09T00:26:27.137Z,18.30
2019-05-09T00:28:58.426Z,16.83
2019-05-09T00:31:54.149Z,17.47
2019-05-09T00:34:36.974Z,16.00
2019-05-09T00:37:03.774Z,14.47
2019-05-09T00:39:30.647Z,15.83
2019-05-09T00:41:57.596Z,16.43
2019-05-09T00:44:27.361Z,18.57
2019-05-09T00:47:06.549Z,15.53
2019-05-09T00:49:34.112Z,15.87
2019-05-09T00:52:03.358Z,18.00
2019-05-09T00:54:29.952Z,16.37
2019-05-09T00:56:56.815Z,16.07
2019-05-09T00:59:24.215Z,14.77
2019-05-09T01:01:51.301Z,15.77
2019-05-09T01:04:18.275Z,16.70
2019-05-09T01:06:45.259Z,16.57
2019-05-09T01:09:13.686Z,18.50
2019-05-09T01:11:40.857Z,15.83
2019-05-09T01:14:07.664Z,18.97
2019-05-09T01:16:34.666Z,19.90
2019-05-09T01:19:03.647Z,17.17
2019-05-09T01:21:33.052Z,15.57
2019-05-09T01:23:59.425Z,20.90
2019-05-09T01:26:26.334Z,20.97
2019-05-09T01:28:54.014Z,15.23
2019-05-09T01:31:21.170Z,17.43
2019-05-09T01:33:56.326Z,17.80
2019-05-09T01:36:23.567Z,17.17
2019-05-09T01:38:50.594Z,15.17
2019-05-09T01:41:27.943Z,17.67
2019-05-09T01:43:46.181Z,16.93
2019-05-09T01:46:14.459Z,16.17
2019-05-09T01:48:43.137Z,18.20
2019-05-09T01:51:10.209Z,18.17
2019-05-09T01:53:43.642Z,15.47
2019-05-09T01:56:10.264Z,17.73
2019-05-09T01:58:37.050Z,19.33
2019-05-09T02:01:06.207Z,20.43
2019-05-09T02:03:33.728Z,19.73
2019-05-09T02:06:03.269Z,21.43
2019-05-09T02:08:29.701Z,19.10
2019-05-09T02:10:56.593Z,17.93
2019-05-09T02:13:23.398Z,17.63
2019-05-09T02:16:09.877Z,19.30
2019-05-09T02:18:44.057Z,21.33
2019-05-09T02:21:12.347Z,18.67
2019-05-09T02:23:39.751Z,22.57
2019-05-09T02:26:06.567Z,22.47
2019-05-09T02:28:34.130Z,20.37
2019-05-09T02:31:04.756Z,21.20
2019-05-09T02:33:29.906Z,23.20
2019-05-09T02:36:00.940Z,21.60
2019-05-09T02:38:28.579Z,22.97
2019-05-09T02:40:54.132Z,21.70
2019-05-09T02:43:20.935Z,22.90
2019-05-09T02:45:59.101Z,22.63
2019-05-09T02:48:24.506Z,22.73
2019-05-09T02:50:51.387Z,25.63
2019-05-09T02:53:19.067Z,21.43
2019-05-09T02:55:49.210Z,21.50
2019-05-09T02:58:20.429Z,21.90
2019-05-09T03:00:53.399Z,19.47
2019-05-09T03:03:28.839Z,23.77
2019-05-09T03:05:54.778Z,22.80
2019-05-09T03:08:21.761Z,25.83
2019-05-09T03:10:49.141Z,26.47
2019-05-09T03:13:19.064Z,27.43
2019-05-09T03:15:49.346Z,24.13
2019-05-09T03:18:18.114Z,26.83
2019-05-09T03:20:54.164Z,24.27
2019-05-09T03:23:20.970Z,29.73
2019-05-09T03:25:48.535Z,26.50
2019-05-09T03:28:28.552Z,27.70
2019-05-09T03:30:59.222Z,27.33
2019-05-09T03:33:29.542Z,30.07
2019-05-09T03:35:54.804Z,27.50
2019-05-09T03:38:21.698Z,28.83
2019-05-09T03:40:48.622Z,28.50
2019-05-09T03:43:15.555Z,27.10
2019-05-09T03:45:58.542Z,26.87
2019-05-09T03:48:31.298Z,25.00
2019-05-09T03:50:58.232Z,29.23
2019-05-09T03:53:27.039Z,26.03
2019-05-09T03:55:57.629Z,28.00
2019-05-09T03:58:24.753Z,30.37
2019-05-09T04:00:51.524Z,30.73
2019-05-09T04:03:20.364Z,28.07
2019-05-09T04:05:56.671Z,29.73
2019-05-09T04:08:18.243Z,26.67
2019-05-09T04:10:47.021Z,30.23
2019-05-09T04:13:18.000Z,31.77
2019-05-09T04:15:44.674Z,29.33
2019-05-09T04:18:11.594Z,26.63
2019-05-09T04:20:38.974Z,28.37
2019-05-09T04:23:07.949Z,31.00
2019-05-09T04:25:37.651Z,28.03
2019-05-09T04:28:04.826Z,26.87
2019-05-09T04:30:31.837Z,30.57
2019-05-09T04:32:58.721Z,29.87
2019-05-09T04:35:27.759Z,29.03
2019-05-09T04:37:54.291Z,29.97
2019-05-09T04:40:21.217Z,30.47
2019-05-09T04:42:48.032Z,31.23
2019-05-09T04:45:25.430Z,27.83
2019-05-09T04:47:52.320Z,31.70
2019-05-09T04:50:23.450Z,33.80
2019-05-09T04:52:47.835Z,28.13
2019-05-09T04:55:18.082Z,28.47
2019-05-09T04:57:44.585Z,27.03
2019-05-09T05:00:13.474Z,25.57
2019-05-09T05:02:43.822Z,24.90
2019-05-09T05:05:10.828Z,27.97
2019-05-09T05:07:37.783Z,28.73
2019-05-09T05:10:05.339Z,22.90
2019-05-09T05:12:32.321Z,24.50
2019-05-09T05:14:59.109Z,26.60
2019-05-09T05:17:28.290Z,26.53
2019-05-09T05:19:54.847Z,25.43
2019-05-09T05:22:38.733Z,21.97
2019-05-09T05:25:06.042Z,24.17
2019-05-09T05:27:52.470Z,30.47
2019-05-09T05:30:19.286Z,23.03
2019-05-09T05:32:59.170Z,22.77
2019-05-09T05:35:31.354Z,25.60
2019-05-09T05:37:58.275Z,24.03
2019-05-09T05:40:25.336Z,23.47
2019-05-09T05:42:52.266Z,24.57
2019-05-09T05:45:19.493Z,25.20
2019-05-09T05:47:53.529Z,24.53
2019-05-09T05:50:20.675Z,26.23
2019-05-09T05:52:47.680Z,26.13
2019-05-09T05:55:14.928Z,24.73
2019-05-09T05:57:41.725Z,28.23
2019-05-09T06:00:10.447Z,23.97
2019-05-09T06:02:38.544Z,26.43
2019-05-09T06:05:08.290Z,22.87
2019-05-09T06:07:34.510Z,26.43
2019-05-09T06:10:01.342Z,23.63
2019-05-09T06:12:28.149Z,20.37
2019-05-09T06:14:54.981Z,27.47
2019-05-09T06:17:21.882Z,22.53
2019-05-09T06:19:48.678Z,24.33
2019-05-09T06:22:15.532Z,21.43
2019-05-09T06:24:42.571Z,21.93
2019-05-09T06:27:10.518Z,25.67
2019-05-09T06:29:38.549Z,22.33
2019-05-09T06:32:07.792Z,23.63
2019-05-09T06:34:34.812Z,23.03
2019-05-09T06:37:03.246Z,21.03
2019-05-09T06:39:30.492Z,18.40
2019-05-09T06:41:57.689Z,24.03
2019-05-09T06:44:37.336Z,23.00
2019-05-09T06:47:08.704Z,20.83
2019-05-09T06:49:38.038Z,17.67
2019-05-09T06:52:05.006Z,18.90
2019-05-09T06:54:31.932Z,18.10
2019-05-09T06:56:58.808Z,15.60
2019-05-09T06:59:25.697Z,16.63
2019-05-09T07:01:58.142Z,15.87
2019-05-09T07:04:41.231Z,16.63
2019-05-09T07:07:12.488Z,15.00
2019-05-09T07:09:45.152Z,17.17
2019-05-09T07:12:11.947Z,14.67
2019-05-09T07:14:41.744Z,17.67
2019-05-09T07:17:08.497Z,20.83
2019-05-09T07:19:38.020Z,17.13
2019-05-09T07:22:18.432Z,16.13
2019-05-09T07:25:18.620Z,18.80
2019-05-09T07:27:48.081Z,15.93
2019-05-09T07:30:38.112Z,17.00
2019-05-09T07:33:15.337Z,18.10
2019-05-09T07:35:42.409Z,16.93
2019-05-09T07:38:09.334Z,19.40
2019-05-09T07:40:38.495Z,16.80
2019-05-09T07:43:07.541Z,14.17
2019-05-09T07:45:33.729Z,15.93
2019-05-09T07:48:00.776Z,14.93
2019-05-09T07:50:27.828Z,12.03
2019-05-09T07:52:54.872Z,13.27
2019-05-09T07:55:21.778Z,11.43
2019-05-09T07:57:54.964Z,14.20
2019-05-09T08:00:29.173Z,14.23
2019-05-09T08:02:58.078Z,13.03
2019-05-09T08:05:28.006Z,12.13
2019-05-09T08:07:55.168Z,12.43
2019-05-09T08:10:22.274Z,12.70
2019-05-09T08:12:49.193Z,15.37
2019-05-09T08:15:19.650Z,15.80
2019-05-09T08:17:45.035Z,14.73
2019-05-09T08:20:13.927Z,14.83
2019-05-09T08:22:52.362Z,13.00
2019-05-09T08:25:13.006Z,14.40
2019-05-09T08:27:39.809Z,17.33
2019-05-09T08:30:07.863Z,14.97
2019-05-09T08:32:37.535Z,16.10
2019-05-09T08:35:04.066Z,15.03
2019-05-09T08:37:30.914Z,16.60
2019-05-09T08:39:57.985Z,16.17
2019-05-09T08:42:24.922Z,13.77
2019-05-09T08:44:51.810Z,15.30
2019-05-09T08:47:18.708Z,17.87
2019-05-09T08:50:00.461Z,15.17
2019-05-09T08:52:28.723Z,13.90
2019-05-09T08:54:57.872Z,19.00
2019-05-09T08:57:24.969Z,16.40
2019-05-09T08:59:51.910Z,15.63
2019-05-09T09:02:22.160Z,17.17
2019-05-09T09:04:48.877Z,17.47
2019-05-09T09:07:18.717Z,19.57
2019-05-09T09:09:48.081Z,16.57
2019-05-09T09:12:27.257Z,17.73
2019-05-09T09:14:43.345Z,20.60
2019-05-09T09:17:10.391Z,20.03
2019-05-09T09:19:38.651Z,16.20
2019-05-09T09:22:05.872Z,16.90
2019-05-09T09:24:34.583Z,18.60
2019-05-09T09:27:01.538Z,19.53
2019-05-09T09:29:28.496Z,17.63
2019-05-09T09:31:57.474Z,15.50
2019-05-09T09:34:26.948Z,17.00
2019-05-09T09:36:53.047Z,16.97
2019-05-09T09:39:19.922Z,20.60
2019-05-09T09:41:48.282Z,19.87
2019-05-09T09:44:17.813Z,15.57
2019-05-09T09:46:44.255Z,17.33
2019-05-09T09:49:11.090Z,21.07
2019-05-09T09:51:38.380Z,22.27
2019-05-09T09:54:08.535Z,25.80
2019-05-09T09:56:34.402Z,27.37
2019-05-09T09:59:21.033Z,25.37
2019-05-09T10:01:49.306Z,23.03
2019-05-09T10:04:23.885Z,26.50
2019-05-09T10:06:48.266Z,31.30
2019-05-09T10:09:14.691Z,33.97
2019-05-09T10:11:41.611Z,32.70
2019-05-09T10:14:11.585Z,33.60
2019-05-09T10:17:04.208Z,33.27
2019-05-09T10:19:38.400Z,30.07
2019-05-09T10:22:08.453Z,35.97
2019-05-09T10:24:35.427Z,36.23
2019-05-09T10:27:08.798Z,38.23
2019-05-09T10:29:35.078Z,44.53
2019-05-09T10:32:02.478Z,39.23
2019-05-09T10:34:29.411Z,42.07
2019-05-09T10:36:59.267Z,41.77
2019-05-09T10:39:27.673Z,42.60
2019-05-09T10:41:57.537Z,46.90
2019-05-09T10:44:28.487Z,42.83
2019-05-09T10:47:02.104Z,46.90
2019-05-09T10:49:28.451Z,45.67
2019-05-09T10:51:57.902Z,49.37
2019-05-09T10:54:24.320Z,46.40
2019-05-09T10:56:51.134Z,47.83
2019-05-09T10:59:18.354Z,51.30
2019-05-09T11:01:45.497Z,49.50
2019-05-09T11:04:12.561Z,49.33
2019-05-09T11:06:39.477Z,48.83
2019-05-09T11:09:08.567Z,48.47
2019-05-09T11:11:36.058Z,49.97
2019-05-09T11:14:03.174Z,56.80
2019-05-09T11:16:41.713Z,55.30
2019-05-09T11:18:58.971Z,49.77
2019-05-09T11:21:28.498Z,48.67
2019-05-09T11:23:54.922Z,50.07
2019-05-09T11:26:21.790Z,47.77
2019-05-09T11:28:48.653Z,54.00
2019-05-09T11:31:18.027Z,52.33
2019-05-09T11:33:44.657Z,53.07
2019-05-09T11:36:11.950Z,51.77
2019-05-09T11:38:43.737Z,52.37
2019-05-09T11:41:08.351Z,48.87
2019-05-09T11:43:35.294Z,50.80
2019-05-09T11:46:02.277Z,49.83
2019-05-09T11:48:29.306Z,40.20
2019-05-09T11:50:58.149Z,36.27
2019-05-09T11:53:24.887Z,33.93
2019-05-09T11:55:51.879Z,31.73
2019-05-09T11:58:18.707Z,28.30
2019-05-09T12:00:48.111Z,28.67
2019-05-09T12:03:14.410Z,25.13
2019-05-09T12:05:41.319Z,23.33
2019-05-09T12:08:08.525Z,19.47
2019-05-09T12:10:38.221Z,24.03
2019-05-09T12:13:04.799Z,23.33
2019-05-09T12:15:31.706Z,18.87
2019-05-09T12:18:05.405Z,21.03
2019-05-09T12:20:28.415Z,16.90
2019-05-09T12:22:55.200Z,19.57
2019-05-09T12:25:22.199Z,18.93
2019-05-09T12:27:49.030Z,17.00
2019-05-09T12:30:18.684Z,16.20
2019-05-09T12:32:44.656Z,17.87
2019-05-09T12:35:11.886Z,19.77
2019-05-09T12:37:38.774Z,15.97
2019-05-09T12:40:07.703Z,13.23
2019-05-09T12:42:34.833Z,13.27
2019-05-09T12:45:01.836Z,11.67
2019-05-09T12:47:29.250Z,12.87
2019-05-09T12:50:00.374Z,12.80
2019-05-09T12:52:25.118Z,11.40
2019-05-09T12:54:51.907Z,12.20
2019-05-09T12:57:19.404Z,11.83
2019-05-09T12:59:51.644Z,11.70
2019-05-09T13:02:17.648Z,13.13
2019-05-09T13:04:43.945Z,12.50
2019-05-09T13:07:10.834Z,12.47
2019-05-09T13:09:37.717Z,10.07
2019-05-09T13:12:04.790Z,11.30
2019-05-09T13:14:31.590Z,9.57
2019-05-09T13:17:27.297Z,9.93
2019-05-09T13:19:54.351Z,9.60
2019-05-09T13:22:21.274Z,10.53
2019-05-09T13:24:48.057Z,10.70
2019-05-09T13:27:14.956Z,7.73
2019-05-09T13:29:42.119Z,9.97
2019-05-09T13:32:09.086Z,8.20
2019-05-09T13:34:37.994Z,7.53
2019-05-09T13:37:04.963Z,7.27
2019-05-09T13:39:31.757Z,6.97
2019-05-09T13:41:58.661Z,5.93
2019-05-09T13:44:27.598Z,7.00
2019-05-09T13:46:54.190Z,5.97
2019-05-09T13:49:21.002Z,6.30
2019-05-09T13:51:57.385Z,7.27
2019-05-09T13:54:18.471Z,6.47
2019-05-09T13:56:49.153Z,6.13
2019-05-09T13:59:14.331Z,6.63
2019-05-09T14:01:41.282Z,7.30
2019-05-09T14:04:08.278Z,7.43
2019-05-09T14:06:35.276Z,6.47
2019-05-09T14:09:02.315Z,7.40
2019-05-09T14:11:29.402Z,8.50
2019-05-09T14:13:57.604Z,5.83
2019-05-09T14:16:25.251Z,6.23
2019-05-09T14:18:55.373Z,6.43
2019-05-09T14:21:24.507Z,6.37
2019-05-09T14:24:02.665Z,8.73
2019-05-09T14:26:18.654Z,4.83
2019-05-09T14:28:45.608Z,5.30
2019-05-09T14:31:12.407Z,5.70
2019-05-09T14:33:39.205Z,5.13
2019-05-09T14:36:08.228Z,5.93
2019-05-09T14:38:34.940Z,6.50
2019-05-09T14:41:07.684Z,5.73
2019-05-09T14:43:34.414Z,7.47
2019-05-09T14:46:01.330Z,7.07
2019-05-09T14:48:28.756Z,9.07
2019-05-09T14:50:58.200Z,7.33
2019-05-09T14:53:24.668Z,7.33
2019-05-09T14:55:51.512Z,8.03
2019-05-09T14:58:18.424Z,7.73
2019-05-09T15:00:47.849Z,7.23
2019-05-09T15:03:14.310Z,6.37
2019-05-09T15:05:41.115Z,6.87
2019-05-09T15:08:07.919Z,9.87
2019-05-09T15:10:35.051Z,8.63
2019-05-09T15:13:02.063Z,8.50
2019-05-09T15:15:32.518Z,8.40
2019-05-09T15:17:58.481Z,8.80
2019-05-09T15:20:27.979Z,8.97
2019-05-09T15:22:54.433Z,7.97
2019-05-09T15:25:21.331Z,6.47
2019-05-09T15:27:48.336Z,8.17
2019-05-09T15:30:15.654Z,8.67
2019-05-09T15:32:42.490Z,5.83
2019-05-09T15:35:09.574Z,6.17
2019-05-09T15:37:38.680Z,6.17
2019-05-09T15:40:05.447Z,6.23
2019-05-09T15:42:33.246Z,6.80
2019-05-09T15:45:00.340Z,8.77
2019-05-09T15:47:31.230Z,5.90
2019-05-09T15:50:14.661Z,7.77
2019-05-09T15:52:28.687Z,7.30
2019-05-09T15:54:57.915Z,8.57
2019-05-09T15:57:24.457Z,8.97
2019-05-09T15:59:51.299Z,7.50
2019-05-09T16:02:19.258Z,8.90
2019-05-09T16:04:47.545Z,5.90
2019-05-09T16:07:14.590Z,5.30
2019-05-09T16:09:41.391Z,5.23
2019-05-09T16:12:08.266Z,6.63
2019-05-09T16:14:35.272Z,6.67
2019-05-09T16:17:02.176Z,6.43
2019-05-09T16:19:29.163Z,7.80
2019-05-09T16:21:56.080Z,9.20
2019-05-09T16:24:22.923Z,7.13
2019-05-09T16:26:49.838Z,9.07
2019-05-09T16:29:17.816Z,9.47
2019-05-09T16:31:44.901Z,10.37
2019-05-09T16:34:11.722Z,7.47
2019-05-09T16:36:39.011Z,7.57
2019-05-09T16:39:07.457Z,10.27
2019-05-09T16:41:34.627Z,9.70
2019-05-09T16:44:01.690Z,9.03
2019-05-09T16:46:28.805Z,11.07
2019-05-09T16:48:57.952Z,10.20
2019-05-09T16:51:24.497Z,8.93
2019-05-09T16:53:51.415Z,9.27
2019-05-09T16:56:18.479Z,11.37
2019-05-09T16:58:45.436Z,10.43
2019-05-09T17:01:12.426Z,10.77
2019-05-09T17:03:39.289Z,8.47
2019-05-09T17:06:07.688Z,10.50
2019-05-09T17:08:34.833Z,12.17
2019-05-09T17:11:01.979Z,12.07
2019-05-09T17:13:29.083Z,10.70
2019-05-09T17:15:56.212Z,10.10
2019-05-09T17:18:23.154Z,9.23
2019-05-09T17:21:14.892Z,10.10
2019-05-09T17:23:30.293Z,12.50
2019-05-09T17:25:57.945Z,10.67
2019-05-09T17:28:24.951Z,8.60
2019-05-09T17:30:51.996Z,8.60
2019-05-09T17:33:19.012Z,10.43
2019-05-09T17:35:48.117Z,10.43
2019-05-09T17:38:14.957Z,8.63
2019-05-09T17:40:41.962Z,10.40
2019-05-09T17:43:08.853Z,10.53
2019-05-09T17:45:39.531Z,10.20
2019-05-09T17:48:05.033Z,10.40
2019-05-09T17:50:31.831Z,8.83
2019-05-09T17:52:58.874Z,8.13
2019-05-09T17:55:25.854Z,7.17
2019-05-09T17:57:52.767Z,7.67
2019-05-09T18:00:22.077Z,7.70
2019-05-09T18:02:48.857Z,7.00
2019-05-09T18:05:16.180Z,7.37
2019-05-09T18:07:43.022Z,7.77
2019-05-09T18:10:10.031Z,8.23
2019-05-09T18:12:38.433Z,7.57
2019-05-09T18:15:07.670Z,7.97
2019-05-09T18:17:34.799Z,8.57
2019-05-09T18:20:01.898Z,11.30
2019-05-09T18:22:28.750Z,9.73
2019-05-09T18:24:57.654Z,6.93
2019-05-09T18:27:24.465Z,5.80
2019-05-09T18:29:51.364Z,5.27
2019-05-09T18:32:33.991Z,5.17
2019-05-09T18:35:11.153Z,4.77
2019-05-09T18:37:37.981Z,5.07
2019-05-09T18:40:05.210Z,3.43
2019-05-09T18:42:32.138Z,4.57
2019-05-09T18:44:59.693Z,5.13
2019-05-09T18:47:27.920Z,5.20
2019-05-09T18:49:54.980Z,5.10
2019-05-09T18:52:21.808Z,5.93
2019-05-09T18:54:48.719Z,4.97
2019-05-09T18:57:15.627Z,5.53
2019-05-09T18:59:42.661Z,5.87
2019-05-09T19:02:11.001Z,7.93
2019-05-09T19:04:37.906Z,7.60
2019-05-09T19:07:20.793Z,10.33
2019-05-09T19:09:33.586Z,8.90
2019-05-09T19:12:00.390Z,12.07
2019-05-09T19:14:28.157Z,12.37
2019-05-09T19:17:29.747Z,14.63
2019-05-09T19:20:10.273Z,13.93
2019-05-09T19:22:37.226Z,13.37
2019-05-09T19:25:04.330Z,14.20
2019-05-09T19:27:31.333Z,18.07
2019-05-09T19:29:58.155Z,17.57
2019-05-09T19:32:25.056Z,21.77
2019-05-09T19:34:52.160Z,17.97
2019-05-09T19:37:19.076Z,20.70
2019-05-09T19:39:46.012Z,21.03
2019-05-09T19:42:12.938Z,20.00
2019-05-09T19:44:39.825Z,21.40
2019-05-09T19:47:06.654Z,21.10
2019-05-09T19:49:33.517Z,27.47
2019-05-09T19:52:00.322Z,22.20
2019-05-09T19:54:27.114Z,26.30
2019-05-09T19:56:53.945Z,22.67
2019-05-09T19:59:20.732Z,23.63
2019-05-09T20:01:47.709Z,24.13
2019-05-09T20:04:14.529Z,27.13
2019-05-09T20:06:41.430Z,23.87
2019-05-09T20:09:14.759Z,24.13
2019-05-09T20:12:03.314Z,26.03
2019-05-09T20:14:35.906Z,25.60
2019-05-09T20:17:02.898Z,27.83
2019-05-09T20:19:29.780Z,28.90
2019-05-09T20:21:56.694Z,28.10
2019-05-09T20:24:23.495Z,27.27
2019-05-09T20:26:50.393Z,26.37
2019-05-09T20:29:17.211Z,27.57
2019-05-09T20:31:44.181Z,23.23
2019-05-09T20:34:11.040Z,25.70
2019-05-09T20:36:37.835Z,26.40
2019-05-09T20:39:05.834Z,27.70
2019-05-09T20:41:32.644Z,28.40
2019-05-09T20:43:59.533Z,26.30
2019-05-09T20:46:26.374Z,28.23
2019-05-09T20:48:53.221Z,28.90
2019-05-09T20:51:20.098Z,26.87
2019-05-09T20:53:46.954Z,26.13
2019-05-09T20:56:13.973Z,27.17
2019-05-09T20:58:40.799Z,25.70
2019-05-09T21:01:07.697Z,29.00
2019-05-09T21:03:34.477Z,31.20
2019-05-09T21:06:01.303Z,27.63
2019-05-09T21:08:28.382Z,30.43
2019-05-09T21:11:01.201Z,31.33
2019-05-09T21:13:28.033Z,27.37
2019-05-09T21:15:54.844Z,32.07
2019-05-09T21:18:21.703Z,27.40
2019-05-09T21:20:48.537Z,30.27
2019-05-09T21:23:24.258Z,28.77
2019-05-09T21:25:44.015Z,29.00
2019-05-09T21:28:10.830Z,31.40
2019-05-09T21:30:37.717Z,28.87
2019-05-09T21:33:04.701Z,28.53
2019-05-09T21:35:31.618Z,29.83
2019-05-09T21:37:58.510Z,27.60
2019-05-09T21:40:25.294Z,30.67
2019-05-09T21:42:52.158Z,27.73
2019-05-09T21:45:19.141Z,34.33
2019-05-09T21:47:46.324Z,35.03
2019-05-09T21:50:13.351Z,34.60
2019-05-09T21:52:40.126Z,36.67
2019-05-09T21:55:07.703Z,38.70
2019-05-09T21:57:34.626Z,34.57
2019-05-09T22:00:01.619Z,39.27
2019-05-09T22:02:28.807Z,37.40
2019-05-09T22:04:55.938Z,38.53
2019-05-09T22:07:22.917Z,39.90
2019-05-09T22:09:49.905Z,35.57
2019-05-09T22:12:16.710Z,41.30
2019-05-09T22:14:43.711Z,37.80
2019-05-09T22:17:19.935Z,42.53
2019-05-09T22:19:46.729Z,42.37
2019-05-09T22:22:13.535Z,44.73
2019-05-09T22:24:40.458Z,49.57
2019-05-09T22:27:07.345Z,56.37
2019-05-09T22:29:34.118Z,79.37
2019-05-09T22:32:01.037Z,109.03
2019-05-09T22:34:27.823Z,123.53
2019-05-09T22:36:54.722Z,133.30
2019-05-09T22:39:21.761Z,190.77
2019-05-09T22:41:48.630Z,214.67
2019-05-09T22:44:15.622Z,340.93
2019-05-09T22:46:42.552Z,330.57
2019-05-09T22:49:09.317Z,318.87
2019-05-09T22:51:36.115Z,325.00
2019-05-09T22:54:12.358Z,271.10
2019-05-09T22:56:32.001Z,338.53
2019-05-09T22:58:58.785Z,303.87
2019-05-09T23:01:25.706Z,319.57
2019-05-09T23:03:52.490Z,307.07
2019-05-09T23:06:19.512Z,257.40
2019-05-09T23:08:46.306Z,251.73
2019-05-09T23:11:13.300Z,263.37
2019-05-09T23:13:52.002Z,273.47
2019-05-09T23:16:20.549Z,215.53
2019-05-09T23:18:47.532Z,256.23
2019-05-09T23:21:14.448Z,306.47
2019-05-09T23:23:43.911Z,273.40
2019-05-09T23:26:13.485Z,340.30
2019-05-09T23:28:40.392Z,246.27
2019-05-09T23:31:11.054Z,301.10
2019-05-09T23:33:39.523Z,241.37
2019-05-09T23:36:06.528Z,277.10
2019-05-09T23:38:33.305Z,306.93
2019-05-09T23:41:00.130Z,254.23
2019-05-09T23:43:27.059Z,337.37
2019-05-09T23:45:53.962Z,314.90
2019-05-09T23:48:20.765Z,271.57
2019-05-09T23:50:47.651Z,331.40
2019-05-09T23:53:19.758Z,334.47
2019-05-09T23:56:04.893Z,382.97
2019-05-09T23:58:50.227Z,331.63
